To NAV CANADA Home Page Login to a new session Search on AWWS site Feedback and Comments Disclaimer Vers la page française équivalente Tips FAQ What's new on the site To the Forecasts and Observations / NOTAM section To "File a Flight Plan" website Publications and other links Update of the User's profile FIC Telephone Numbers My Weather Data Folder Route Weather Data Regional Weather Data Local Weather Data To the Forecasts and Observations / NOTAM section
Request Generated 05/03/2016 at 03:04:05 UTC . Weather information available at that time is displayed.

METAR/TAF

TORONTO/BUTTONVILLE MUNICIPAL/ON    

METAR CYKZ 030300Z 00000KT 15SM FEW080 FEW220 07/03 A2998 RMK AS1CI1
AS TR SLP159=
METAR CYKZ 030200Z 18003KT 15SM FEW260 08/04 A2999 RMK CI1 CI TR
SLP162=
METAR CYKZ 030100Z 18004KT 15SM FEW060 BKN260 08/04 A2999 RMK SC1CI4
SLP162=

TAF CYKZ 022341Z 0300/0312 17007KT P6SM SCT050 BKN260
BECMG 0300/0302 VRB03KT
FM030200 VRB03KT P6SM SCT030 PROB30 0305/0312 1/2SM FG
RMK NXT FCST BY 030600Z=
Your time UTC time
Weather data provided by Environment Canada and NAV CANADA